sensor_id;sensor_type;location;lat;lon;timestamp;P1;durP1;ratioP1;P2;durP2;ratioP2
85077;SDS011;75413;50.144;8.456;2024-01-11T00:01:56;24.30;;;12.07;;
85077;SDS011;75413;50.144;8.456;2024-01-11T00:04:40;22.70;;;12.25;;
85077;SDS011;75413;50.144;8.456;2024-01-11T00:07:25;22.80;;;11.95;;
85077;SDS011;75413;50.144;8.456;2024-01-11T00:10:09;25.77;;;13.25;;
85077;SDS011;75413;50.144;8.456;2024-01-11T00:12:53;20.67;;;11.20;;
85077;SDS011;75413;50.144;8.456;2024-01-11T00:15:37;24.52;;;12.05;;
85077;SDS011;75413;50.144;8.456;2024-01-11T00:18:21;21.55;;;11.23;;
85077;SDS011;75413;50.144;8.456;2024-01-11T00:21:05;24.20;;;11.57;;
85077;SDS011;75413;50.144;8.456;2024-01-11T00:23:49;19.02;;;11.15;;
85077;SDS011;75413;50.144;8.456;2024-01-11T00:26:33;18.45;;;10.38;;
85077;SDS011;75413;50.144;8.456;2024-01-11T00:29:17;20.65;;;10.68;;
85077;SDS011;75413;50.144;8.456;2024-01-11T00:32:01;22.38;;;11.40;;
85077;SDS011;75413;50.144;8.456;2024-01-11T00:34:45;20.52;;;10.88;;
85077;SDS011;75413;50.144;8.456;2024-01-11T00:37:29;22.55;;;11.80;;
85077;SDS011;75413;50.144;8.456;2024-01-11T00:40:13;23.75;;;10.05;;
85077;SDS011;75413;50.144;8.456;2024-01-11T00:43:00;19.92;;;10.23;;
85077;SDS011;75413;50.144;8.456;2024-01-11T00:45:45;21.48;;;11.05;;
85077;SDS011;75413;50.144;8.456;2024-01-11T00:48:29;20.35;;;10.75;;
85077;SDS011;75413;50.144;8.456;2024-01-11T00:51:14;19.58;;;10.60;;
85077;SDS011;75413;50.144;8.456;2024-01-11T00:53:59;19.92;;;12.25;;
85077;SDS011;75413;50.144;8.456;2024-01-11T00:56:43;20.40;;;11.95;;
85077;SDS011;75413;50.144;8.456;2024-01-11T00:59:27;22.98;;;13.23;;
85077;SDS011;75413;50.144;8.456;2024-01-11T01:02:11;24.10;;;13.82;;
85077;SDS011;75413;50.144;8.456;2024-01-11T01:04:54;26.85;;;15.63;;
85077;SDS011;75413;50.144;8.456;2024-01-11T01:07:38;23.80;;;14.32;;
85077;SDS011;75413;50.144;8.456;2024-01-11T01:10:23;24.05;;;14.60;;
85077;SDS011;75413;50.144;8.456;2024-01-11T01:15:51;26.30;;;13.70;;
85077;SDS011;75413;50.144;8.456;2024-01-11T01:18:35;19.48;;;10.15;;
85077;SDS011;75413;50.144;8.456;2024-01-11T01:21:19;21.05;;;11.52;;
85077;SDS011;75413;50.144;8.456;2024-01-11T01:24:03;20.33;;;11.18;;
85077;SDS011;75413;50.144;8.456;2024-01-11T01:26:47;21.90;;;12.93;;
85077;SDS011;75413;50.144;8.456;2024-01-11T01:29:31;20.52;;;11.25;;
85077;SDS011;75413;50.144;8.456;2024-01-11T01:32:15;24.10;;;10.48;;
85077;SDS011;75413;50.144;8.456;2024-01-11T01:34:59;25.80;;;11.52;;
85077;SDS011;75413;50.144;8.456;2024-01-11T01:37:43;23.05;;;13.07;;
85077;SDS011;75413;50.144;8.456;2024-01-11T01:40:27;21.25;;;11.07;;
85077;SDS011;75413;50.144;8.456;2024-01-11T01:43:14;22.25;;;10.63;;
85077;SDS011;75413;50.144;8.456;2024-01-11T01:45:58;20.70;;;10.45;;
85077;SDS011;75413;50.144;8.456;2024-01-11T01:48:42;22.38;;;11.23;;
85077;SDS011;75413;50.144;8.456;2024-01-11T01:51:29;19.77;;;10.52;;
85077;SDS011;75413;50.144;8.456;2024-01-11T01:54:15;18.88;;;10.60;;
85077;SDS011;75413;50.144;8.456;2024-01-11T01:57:02;21.00;;;10.95;;
85077;SDS011;75413;50.144;8.456;2024-01-11T01:59:49;23.98;;;11.63;;
85077;SDS011;75413;50.144;8.456;2024-01-11T02:02:35;24.63;;;10.90;;
85077;SDS011;75413;50.144;8.456;2024-01-11T02:05:19;25.10;;;12.73;;
85077;SDS011;75413;50.144;8.456;2024-01-11T02:08:03;21.60;;;11.73;;
85077;SDS011;75413;50.144;8.456;2024-01-11T02:10:52;20.40;;;10.52;;
85077;SDS011;75413;50.144;8.456;2024-01-11T02:13:36;20.23;;;11.05;;
85077;SDS011;75413;50.144;8.456;2024-01-11T02:16:21;20.30;;;11.18;;
85077;SDS011;75413;50.144;8.456;2024-01-11T02:19:05;24.73;;;11.07;;
85077;SDS011;75413;50.144;8.456;2024-01-11T02:21:52;21.65;;;12.35;;
85077;SDS011;75413;50.144;8.456;2024-01-11T02:24:38;28.27;;;12.60;;
85077;SDS011;75413;50.144;8.456;2024-01-11T02:27:23;24.75;;;12.15;;
85077;SDS011;75413;50.144;8.456;2024-01-11T02:30:07;23.85;;;11.65;;
85077;SDS011;75413;50.144;8.456;2024-01-11T02:32:51;20.20;;;12.10;;
85077;SDS011;75413;50.144;8.456;2024-01-11T02:35:35;25.15;;;11.48;;
85077;SDS011;75413;50.144;8.456;2024-01-11T02:38:22;21.17;;;10.63;;
85077;SDS011;75413;50.144;8.456;2024-01-11T02:41:06;21.15;;;11.77;;
85077;SDS011;75413;50.144;8.456;2024-01-11T02:43:51;20.77;;;10.93;;
85077;SDS011;75413;50.144;8.456;2024-01-11T02:46:37;22.25;;;11.77;;
85077;SDS011;75413;50.144;8.456;2024-01-11T02:49:21;25.38;;;12.80;;
85077;SDS011;75413;50.144;8.456;2024-01-11T02:52:05;21.92;;;11.63;;
85077;SDS011;75413;50.144;8.456;2024-01-11T02:54:49;24.13;;;11.90;;
85077;SDS011;75413;50.144;8.456;2024-01-11T02:57:33;28.98;;;12.88;;
85077;SDS011;75413;50.144;8.456;2024-01-11T03:00:17;33.42;;;14.40;;
85077;SDS011;75413;50.144;8.456;2024-01-11T03:03:01;21.35;;;13.55;;
85077;SDS011;75413;50.144;8.456;2024-01-11T03:05:46;26.10;;;13.05;;
85077;SDS011;75413;50.144;8.456;2024-01-11T03:08:30;20.55;;;10.00;;
85077;SDS011;75413;50.144;8.456;2024-01-11T03:11:14;27.38;;;11.18;;
85077;SDS011;75413;50.144;8.456;2024-01-11T03:13:58;22.33;;;10.13;;
85077;SDS011;75413;50.144;8.456;2024-01-11T03:16:42;20.42;;;10.27;;
85077;SDS011;75413;50.144;8.456;2024-01-11T03:19:26;18.58;;;9.95;;
85077;SDS011;75413;50.144;8.456;2024-01-11T03:22:11;23.40;;;11.20;;
85077;SDS011;75413;50.144;8.456;2024-01-11T03:24:55;25.85;;;12.27;;
85077;SDS011;75413;50.144;8.456;2024-01-11T03:27:39;25.50;;;13.02;;
85077;SDS011;75413;50.144;8.456;2024-01-11T03:30:23;28.48;;;14.95;;
85077;SDS011;75413;50.144;8.456;2024-01-11T03:33:07;30.63;;;14.57;;
85077;SDS011;75413;50.144;8.456;2024-01-11T03:35:51;25.33;;;14.18;;
85077;SDS011;75413;50.144;8.456;2024-01-11T03:38:35;24.33;;;13.30;;
85077;SDS011;75413;50.144;8.456;2024-01-11T03:41:19;20.52;;;11.57;;
85077;SDS011;75413;50.144;8.456;2024-01-11T03:44:03;24.08;;;10.13;;
85077;SDS011;75413;50.144;8.456;2024-01-11T03:46:47;21.85;;;10.68;;
85077;SDS011;75413;50.144;8.456;2024-01-11T03:49:31;24.98;;;10.75;;
85077;SDS011;75413;50.144;8.456;2024-01-11T03:52:15;21.13;;;10.70;;
85077;SDS011;75413;50.144;8.456;2024-01-11T03:54:59;23.35;;;11.90;;
85077;SDS011;75413;50.144;8.456;2024-01-11T03:57:43;26.23;;;11.57;;
85077;SDS011;75413;50.144;8.456;2024-01-11T04:00:28;23.10;;;13.27;;
85077;SDS011;75413;50.144;8.456;2024-01-11T04:03:12;25.25;;;11.55;;
85077;SDS011;75413;50.144;8.456;2024-01-11T04:05:55;26.17;;;12.73;;
85077;SDS011;75413;50.144;8.456;2024-01-11T04:11:27;26.20;;;11.82;;
85077;SDS011;75413;50.144;8.456;2024-01-11T04:14:11;19.42;;;10.38;;
85077;SDS011;75413;50.144;8.456;2024-01-11T04:19:40;19.27;;;9.20;;
85077;SDS011;75413;50.144;8.456;2024-01-11T04:22:24;18.73;;;9.75;;
85077;SDS011;75413;50.144;8.456;2024-01-11T04:25:11;21.42;;;9.95;;
85077;SDS011;75413;50.144;8.456;2024-01-11T04:27:55;15.82;;;9.48;;
85077;SDS011;75413;50.144;8.456;2024-01-11T04:30:39;22.92;;;11.25;;
85077;SDS011;75413;50.144;8.456;2024-01-11T04:33:23;21.48;;;10.43;;
85077;SDS011;75413;50.144;8.456;2024-01-11T04:36:07;16.67;;;9.73;;
85077;SDS011;75413;50.144;8.456;2024-01-11T04:38:54;20.38;;;9.50;;
85077;SDS011;75413;50.144;8.456;2024-01-11T04:41:39;22.23;;;10.98;;
85077;SDS011;75413;50.144;8.456;2024-01-11T04:44:23;31.83;;;15.25;;
85077;SDS011;75413;50.144;8.456;2024-01-11T04:47:07;26.38;;;12.45;;
85077;SDS011;75413;50.144;8.456;2024-01-11T04:49:52;27.90;;;13.55;;
85077;SDS011;75413;50.144;8.456;2024-01-11T04:52:36;26.30;;;12.85;;
85077;SDS011;75413;50.144;8.456;2024-01-11T04:55:25;26.70;;;13.43;;
85077;SDS011;75413;50.144;8.456;2024-01-11T04:58:09;26.25;;;12.68;;
85077;SDS011;75413;50.144;8.456;2024-01-11T05:00:53;29.75;;;13.73;;
85077;SDS011;75413;50.144;8.456;2024-01-11T05:03:37;23.77;;;12.00;;
85077;SDS011;75413;50.144;8.456;2024-01-11T05:06:22;25.70;;;11.98;;
85077;SDS011;75413;50.144;8.456;2024-01-11T05:09:06;29.55;;;13.10;;
85077;SDS011;75413;50.144;8.456;2024-01-11T05:11:51;25.58;;;11.65;;
85077;SDS011;75413;50.144;8.456;2024-01-11T05:14:35;21.77;;;12.13;;
85077;SDS011;75413;50.144;8.456;2024-01-11T05:17:19;24.70;;;11.48;;
85077;SDS011;75413;50.144;8.456;2024-01-11T05:20:03;20.90;;;11.55;;
85077;SDS011;75413;50.144;8.456;2024-01-11T05:22:48;21.13;;;12.10;;
85077;SDS011;75413;50.144;8.456;2024-01-11T05:25:32;25.02;;;12.63;;
85077;SDS011;75413;50.144;8.456;2024-01-11T05:28:17;23.02;;;11.55;;
85077;SDS011;75413;50.144;8.456;2024-01-11T05:31:01;23.38;;;13.38;;
85077;SDS011;75413;50.144;8.456;2024-01-11T05:33:45;22.30;;;11.50;;
85077;SDS011;75413;50.144;8.456;2024-01-11T05:36:30;29.85;;;13.30;;
85077;SDS011;75413;50.144;8.456;2024-01-11T05:39:14;23.85;;;12.70;;
85077;SDS011;75413;50.144;8.456;2024-01-11T05:41:58;22.80;;;11.75;;
85077;SDS011;75413;50.144;8.456;2024-01-11T05:44:42;26.45;;;12.05;;
85077;SDS011;75413;50.144;8.456;2024-01-11T05:47:26;22.20;;;11.95;;
85077;SDS011;75413;50.144;8.456;2024-01-11T05:50:10;24.45;;;12.80;;
85077;SDS011;75413;50.144;8.456;2024-01-11T05:52:55;28.23;;;13.23;;
85077;SDS011;75413;50.144;8.456;2024-01-11T05:55:40;27.05;;;12.82;;
85077;SDS011;75413;50.144;8.456;2024-01-11T05:58:24;26.38;;;13.07;;
85077;SDS011;75413;50.144;8.456;2024-01-11T06:01:11;29.10;;;13.57;;
85077;SDS011;75413;50.144;8.456;2024-01-11T06:06:40;31.88;;;14.32;;
85077;SDS011;75413;50.144;8.456;2024-01-11T06:09:24;30.60;;;14.27;;
85077;SDS011;75413;50.144;8.456;2024-01-11T06:12:08;24.75;;;12.27;;
85077;SDS011;75413;50.144;8.456;2024-01-11T06:14:52;30.85;;;14.10;;
85077;SDS011;75413;50.144;8.456;2024-01-11T06:17:36;29.73;;;13.18;;
85077;SDS011;75413;50.144;8.456;2024-01-11T06:20:20;36.25;;;14.93;;
85077;SDS011;75413;50.144;8.456;2024-01-11T06:23:04;22.92;;;13.43;;
85077;SDS011;75413;50.144;8.456;2024-01-11T06:25:48;26.85;;;14.68;;
85077;SDS011;75413;50.144;8.456;2024-01-11T06:28:32;28.88;;;14.90;;
85077;SDS011;75413;50.144;8.456;2024-01-11T06:31:16;26.33;;;14.20;;
85077;SDS011;75413;50.144;8.456;2024-01-11T06:34:01;28.25;;;14.77;;
85077;SDS011;75413;50.144;8.456;2024-01-11T06:36:45;28.23;;;14.48;;
85077;SDS011;75413;50.144;8.456;2024-01-11T06:39:29;29.35;;;14.30;;
85077;SDS011;75413;50.144;8.456;2024-01-11T06:42:13;29.92;;;14.48;;
85077;SDS011;75413;50.144;8.456;2024-01-11T06:44:58;26.70;;;15.18;;
85077;SDS011;75413;50.144;8.456;2024-01-11T06:47:42;26.90;;;14.60;;
85077;SDS011;75413;50.144;8.456;2024-01-11T06:50:28;27.75;;;13.95;;
85077;SDS011;75413;50.144;8.456;2024-01-11T06:53:12;31.30;;;14.98;;
85077;SDS011;75413;50.144;8.456;2024-01-11T06:55:56;28.58;;;13.88;;
85077;SDS011;75413;50.144;8.456;2024-01-11T06:58:40;25.98;;;12.93;;
85077;SDS011;75413;50.144;8.456;2024-01-11T07:01:24;24.45;;;12.20;;
85077;SDS011;75413;50.144;8.456;2024-01-11T07:04:09;27.35;;;12.60;;
85077;SDS011;75413;50.144;8.456;2024-01-11T07:06:53;32.00;;;11.88;;
85077;SDS011;75413;50.144;8.456;2024-01-11T07:09:37;23.35;;;11.88;;
85077;SDS011;75413;50.144;8.456;2024-01-11T07:12:21;23.88;;;11.65;;
85077;SDS011;75413;50.144;8.456;2024-01-11T07:15:05;23.30;;;10.63;;
85077;SDS011;75413;50.144;8.456;2024-01-11T07:17:51;20.42;;;11.63;;
85077;SDS011;75413;50.144;8.456;2024-01-11T07:20:37;20.02;;;12.15;;
85077;SDS011;75413;50.144;8.456;2024-01-11T07:23:21;30.95;;;12.77;;
85077;SDS011;75413;50.144;8.456;2024-01-11T07:26:05;25.63;;;12.75;;
85077;SDS011;75413;50.144;8.456;2024-01-11T07:28:49;27.50;;;13.70;;
85077;SDS011;75413;50.144;8.456;2024-01-11T07:31:34;26.02;;;14.93;;
85077;SDS011;75413;50.144;8.456;2024-01-11T07:34:18;32.38;;;15.45;;
85077;SDS011;75413;50.144;8.456;2024-01-11T07:37:03;29.05;;;14.57;;
85077;SDS011;75413;50.144;8.456;2024-01-11T07:39:50;32.47;;;14.57;;
85077;SDS011;75413;50.144;8.456;2024-01-11T07:42:34;35.15;;;16.00;;
85077;SDS011;75413;50.144;8.456;2024-01-11T07:45:18;34.03;;;15.50;;
85077;SDS011;75413;50.144;8.456;2024-01-11T07:48:03;34.50;;;16.40;;
85077;SDS011;75413;50.144;8.456;2024-01-11T07:50:47;30.42;;;15.85;;
85077;SDS011;75413;50.144;8.456;2024-01-11T07:53:31;26.35;;;13.23;;
85077;SDS011;75413;50.144;8.456;2024-01-11T07:56:15;26.38;;;12.50;;
85077;SDS011;75413;50.144;8.456;2024-01-11T07:58:59;26.02;;;13.65;;
85077;SDS011;75413;50.144;8.456;2024-01-11T08:01:43;27.25;;;13.45;;
85077;SDS011;75413;50.144;8.456;2024-01-11T08:04:27;25.92;;;12.23;;
85077;SDS011;75413;50.144;8.456;2024-01-11T08:07:11;26.25;;;12.48;;
85077;SDS011;75413;50.144;8.456;2024-01-11T08:09:55;26.15;;;12.65;;
85077;SDS011;75413;50.144;8.456;2024-01-11T08:12:38;24.23;;;13.18;;
85077;SDS011;75413;50.144;8.456;2024-01-11T08:15:22;24.08;;;11.95;;
85077;SDS011;75413;50.144;8.456;2024-01-11T08:18:06;35.47;;;15.90;;
85077;SDS011;75413;50.144;8.456;2024-01-11T08:20:51;27.85;;;15.93;;
85077;SDS011;75413;50.144;8.456;2024-01-11T08:23:35;27.63;;;14.75;;
85077;SDS011;75413;50.144;8.456;2024-01-11T08:26:19;32.55;;;16.02;;
85077;SDS011;75413;50.144;8.456;2024-01-11T08:29:03;35.00;;;16.23;;
85077;SDS011;75413;50.144;8.456;2024-01-11T08:31:48;36.00;;;19.58;;
85077;SDS011;75413;50.144;8.456;2024-01-11T08:34:33;34.08;;;19.50;;
85077;SDS011;75413;50.144;8.456;2024-01-11T08:37:17;38.45;;;20.48;;
85077;SDS011;75413;50.144;8.456;2024-01-11T08:40:01;41.25;;;21.58;;
85077;SDS011;75413;50.144;8.456;2024-01-11T08:42:45;34.85;;;17.00;;
85077;SDS011;75413;50.144;8.456;2024-01-11T08:45:29;135.57;;;90.45;;
85077;SDS011;75413;50.144;8.456;2024-01-11T08:48:13;44.92;;;24.95;;
85077;SDS011;75413;50.144;8.456;2024-01-11T08:50:58;37.13;;;20.20;;
85077;SDS011;75413;50.144;8.456;2024-01-11T08:53:42;35.17;;;17.48;;
85077;SDS011;75413;50.144;8.456;2024-01-11T08:56:26;42.85;;;19.73;;
85077;SDS011;75413;50.144;8.456;2024-01-11T08:59:11;33.17;;;17.52;;
85077;SDS011;75413;50.144;8.456;2024-01-11T09:01:58;39.78;;;20.48;;
85077;SDS011;75413;50.144;8.456;2024-01-11T09:04:42;40.95;;;20.58;;
85077;SDS011;75413;50.144;8.456;2024-01-11T09:07:26;37.72;;;20.48;;
85077;SDS011;75413;50.144;8.456;2024-01-11T09:10:10;33.75;;;17.27;;
85077;SDS011;75413;50.144;8.456;2024-01-11T09:12:57;29.85;;;15.55;;
85077;SDS011;75413;50.144;8.456;2024-01-11T09:15:41;30.50;;;16.15;;
85077;SDS011;75413;50.144;8.456;2024-01-11T09:18:26;30.90;;;17.17;;
85077;SDS011;75413;50.144;8.456;2024-01-11T09:21:10;28.77;;;16.48;;
85077;SDS011;75413;50.144;8.456;2024-01-11T09:23:55;28.58;;;15.95;;
85077;SDS011;75413;50.144;8.456;2024-01-11T09:26:39;31.15;;;17.10;;
85077;SDS011;75413;50.144;8.456;2024-01-11T09:29:23;33.75;;;16.83;;
85077;SDS011;75413;50.144;8.456;2024-01-11T09:32:07;34.45;;;17.27;;
85077;SDS011;75413;50.144;8.456;2024-01-11T09:34:51;39.08;;;18.98;;
85077;SDS011;75413;50.144;8.456;2024-01-11T09:37:35;33.88;;;17.08;;
85077;SDS011;75413;50.144;8.456;2024-01-11T09:40:19;39.40;;;18.25;;
85077;SDS011;75413;50.144;8.456;2024-01-11T09:43:03;35.13;;;19.00;;
85077;SDS011;75413;50.144;8.456;2024-01-11T09:45:49;37.15;;;18.20;;
85077;SDS011;75413;50.144;8.456;2024-01-11T09:48:35;38.75;;;18.75;;
85077;SDS011;75413;50.144;8.456;2024-01-11T09:51:25;37.78;;;19.35;;
85077;SDS011;75413;50.144;8.456;2024-01-11T09:54:09;36.70;;;20.20;;
85077;SDS011;75413;50.144;8.456;2024-01-11T09:56:57;37.33;;;19.83;;
85077;SDS011;75413;50.144;8.456;2024-01-11T09:59:43;33.90;;;21.10;;
85077;SDS011;75413;50.144;8.456;2024-01-11T10:05:11;38.25;;;18.17;;
85077;SDS011;75413;50.144;8.456;2024-01-11T10:07:57;37.13;;;18.10;;
85077;SDS011;75413;50.144;8.456;2024-01-11T10:10:41;44.05;;;20.80;;
85077;SDS011;75413;50.144;8.456;2024-01-11T10:13:29;39.85;;;20.00;;
85077;SDS011;75413;50.144;8.456;2024-01-11T10:16:14;40.75;;;20.40;;
85077;SDS011;75413;50.144;8.456;2024-01-11T10:21:42;40.03;;;19.15;;
85077;SDS011;75413;50.144;8.456;2024-01-11T10:24:26;34.10;;;20.38;;
85077;SDS011;75413;50.144;8.456;2024-01-11T10:27:12;42.17;;;20.52;;
85077;SDS011;75413;50.144;8.456;2024-01-11T10:29:59;39.50;;;19.90;;
85077;SDS011;75413;50.144;8.456;2024-01-11T10:32:43;39.20;;;20.17;;
85077;SDS011;75413;50.144;8.456;2024-01-11T10:35:28;36.55;;;18.75;;
85077;SDS011;75413;50.144;8.456;2024-01-11T10:38:12;35.75;;;18.45;;
85077;SDS011;75413;50.144;8.456;2024-01-11T10:40:59;37.72;;;20.63;;
85077;SDS011;75413;50.144;8.456;2024-01-11T10:43:44;41.45;;;19.33;;
85077;SDS011;75413;50.144;8.456;2024-01-11T10:46:29;36.00;;;19.10;;
85077;SDS011;75413;50.144;8.456;2024-01-11T10:49:19;37.85;;;19.55;;
85077;SDS011;75413;50.144;8.456;2024-01-11T10:52:03;42.05;;;20.25;;
85077;SDS011;75413;50.144;8.456;2024-01-11T10:54:50;38.38;;;19.10;;
85077;SDS011;75413;50.144;8.456;2024-01-11T10:57:34;39.72;;;20.05;;
85077;SDS011;75413;50.144;8.456;2024-01-11T11:00:19;40.85;;;20.77;;
85077;SDS011;75413;50.144;8.456;2024-01-11T11:05:52;36.40;;;19.48;;
85077;SDS011;75413;50.144;8.456;2024-01-11T11:08:37;40.78;;;20.25;;
85077;SDS011;75413;50.144;8.456;2024-01-11T11:14:06;33.75;;;18.98;;
85077;SDS011;75413;50.144;8.456;2024-01-11T11:16:51;40.05;;;20.15;;
85077;SDS011;75413;50.144;8.456;2024-01-11T11:19:36;40.17;;;21.73;;
85077;SDS011;75413;50.144;8.456;2024-01-11T11:22:20;47.80;;;24.00;;
85077;SDS011;75413;50.144;8.456;2024-01-11T11:25:11;44.63;;;22.65;;
85077;SDS011;75413;50.144;8.456;2024-01-11T11:28:07;44.55;;;20.95;;
85077;SDS011;75413;50.144;8.456;2024-01-11T11:30:55;42.05;;;22.15;;
85077;SDS011;75413;50.144;8.456;2024-01-11T11:33:43;43.65;;;22.90;;
85077;SDS011;75413;50.144;8.456;2024-01-11T11:36:28;47.40;;;22.40;;
85077;SDS011;75413;50.144;8.456;2024-01-11T11:39:13;47.85;;;21.88;;
85077;SDS011;75413;50.144;8.456;2024-01-11T11:41:57;38.78;;;22.77;;
85077;SDS011;75413;50.144;8.456;2024-01-11T11:44:48;42.20;;;22.40;;
85077;SDS011;75413;50.144;8.456;2024-01-11T11:47:37;40.80;;;21.08;;
85077;SDS011;75413;50.144;8.456;2024-01-11T11:50:22;47.47;;;23.40;;
85077;SDS011;75413;50.144;8.456;2024-01-11T11:53:07;46.00;;;23.70;;
85077;SDS011;75413;50.144;8.456;2024-01-11T11:55:54;48.08;;;22.63;;
85077;SDS011;75413;50.144;8.456;2024-01-11T11:58:38;39.22;;;21.35;;
85077;SDS011;75413;50.144;8.456;2024-01-11T12:04:07;42.80;;;21.98;;
85077;SDS011;75413;50.144;8.456;2024-01-11T12:06:52;41.92;;;21.40;;
85077;SDS011;75413;50.144;8.456;2024-01-11T12:09:36;44.22;;;22.58;;
85077;SDS011;75413;50.144;8.456;2024-01-11T12:12:21;39.88;;;20.63;;
85077;SDS011;75413;50.144;8.456;2024-01-11T12:15:07;40.75;;;22.13;;
85077;SDS011;75413;50.144;8.456;2024-01-11T12:17:56;44.20;;;22.30;;
85077;SDS011;75413;50.144;8.456;2024-01-11T12:20:42;39.30;;;22.73;;
85077;SDS011;75413;50.144;8.456;2024-01-11T12:26:13;40.90;;;22.27;;
85077;SDS011;75413;50.144;8.456;2024-01-11T12:28:58;42.83;;;23.00;;
85077;SDS011;75413;50.144;8.456;2024-01-11T12:31:42;42.60;;;22.38;;
85077;SDS011;75413;50.144;8.456;2024-01-11T12:34:26;46.40;;;23.20;;
85077;SDS011;75413;50.144;8.456;2024-01-11T12:37:12;39.78;;;21.00;;
85077;SDS011;75413;50.144;8.456;2024-01-11T12:39:59;38.03;;;21.10;;
85077;SDS011;75413;50.144;8.456;2024-01-11T12:42:43;45.10;;;22.25;;
85077;SDS011;75413;50.144;8.456;2024-01-11T12:45:27;42.33;;;22.80;;
85077;SDS011;75413;50.144;8.456;2024-01-11T12:48:13;43.40;;;22.35;;
85077;SDS011;75413;50.144;8.456;2024-01-11T12:50:59;37.80;;;21.52;;
85077;SDS011;75413;50.144;8.456;2024-01-11T12:53:46;39.58;;;21.83;;
85077;SDS011;75413;50.144;8.456;2024-01-11T12:56:32;42.92;;;24.80;;
85077;SDS011;75413;50.144;8.456;2024-01-11T12:59:19;41.40;;;22.92;;
85077;SDS011;75413;50.144;8.456;2024-01-11T13:02:09;39.35;;;23.02;;
85077;SDS011;75413;50.144;8.456;2024-01-11T13:04:57;38.95;;;21.73;;
85077;SDS011;75413;50.144;8.456;2024-01-11T13:07:41;41.08;;;23.10;;
85077;SDS011;75413;50.144;8.456;2024-01-11T13:10:27;39.35;;;22.10;;
85077;SDS011;75413;50.144;8.456;2024-01-11T13:15:55;42.63;;;20.48;;
85077;SDS011;75413;50.144;8.456;2024-01-11T13:18:39;40.65;;;20.77;;
85077;SDS011;75413;50.144;8.456;2024-01-11T13:21:24;37.40;;;20.67;;
85077;SDS011;75413;50.144;8.456;2024-01-11T13:24:07;37.45;;;22.35;;
85077;SDS011;75413;50.144;8.456;2024-01-11T13:26:52;38.03;;;21.15;;
85077;SDS011;75413;50.144;8.456;2024-01-11T13:29:35;38.83;;;22.92;;
85077;SDS011;75413;50.144;8.456;2024-01-11T13:32:20;39.95;;;20.40;;
85077;SDS011;75413;50.144;8.456;2024-01-11T13:35:06;36.17;;;21.00;;
85077;SDS011;75413;50.144;8.456;2024-01-11T13:37:50;35.55;;;22.92;;
85077;SDS011;75413;50.144;8.456;2024-01-11T13:40:34;37.70;;;21.55;;
85077;SDS011;75413;50.144;8.456;2024-01-11T13:43:19;38.63;;;20.75;;
85077;SDS011;75413;50.144;8.456;2024-01-11T13:46:03;39.90;;;20.55;;
85077;SDS011;75413;50.144;8.456;2024-01-11T13:48:48;40.13;;;21.67;;
85077;SDS011;75413;50.144;8.456;2024-01-11T13:51:32;34.42;;;21.92;;
85077;SDS011;75413;50.144;8.456;2024-01-11T13:54:16;41.30;;;23.38;;
85077;SDS011;75413;50.144;8.456;2024-01-11T13:59:44;38.97;;;21.38;;
85077;SDS011;75413;50.144;8.456;2024-01-11T14:02:28;39.13;;;20.95;;
85077;SDS011;75413;50.144;8.456;2024-01-11T14:05:12;38.90;;;21.80;;
85077;SDS011;75413;50.144;8.456;2024-01-11T14:07:58;36.47;;;21.75;;
85077;SDS011;75413;50.144;8.456;2024-01-11T14:10:43;37.85;;;22.08;;
85077;SDS011;75413;50.144;8.456;2024-01-11T14:13:27;40.45;;;23.75;;
85077;SDS011;75413;50.144;8.456;2024-01-11T14:16:11;39.03;;;23.05;;
85077;SDS011;75413;50.144;8.456;2024-01-11T14:18:57;41.25;;;22.70;;
85077;SDS011;75413;50.144;8.456;2024-01-11T14:21:40;41.75;;;24.20;;
85077;SDS011;75413;50.144;8.456;2024-01-11T14:24:24;36.83;;;22.75;;
85077;SDS011;75413;50.144;8.456;2024-01-11T14:29:53;36.53;;;18.63;;
85077;SDS011;75413;50.144;8.456;2024-01-11T14:32:37;38.47;;;18.38;;
85077;SDS011;75413;50.144;8.456;2024-01-11T14:35:22;36.60;;;18.83;;
85077;SDS011;75413;50.144;8.456;2024-01-11T14:38:11;31.35;;;19.33;;
85077;SDS011;75413;50.144;8.456;2024-01-11T14:40:55;29.17;;;17.55;;
85077;SDS011;75413;50.144;8.456;2024-01-11T14:43:40;29.33;;;18.15;;
85077;SDS011;75413;50.144;8.456;2024-01-11T14:46:25;33.10;;;18.85;;
85077;SDS011;75413;50.144;8.456;2024-01-11T14:49:10;31.40;;;17.08;;
85077;SDS011;75413;50.144;8.456;2024-01-11T14:51:54;31.80;;;17.65;;
85077;SDS011;75413;50.144;8.456;2024-01-11T14:54:38;31.48;;;17.17;;
85077;SDS011;75413;50.144;8.456;2024-01-11T14:57:22;34.38;;;19.25;;
85077;SDS011;75413;50.144;8.456;2024-01-11T15:00:07;35.42;;;18.92;;
85077;SDS011;75413;50.144;8.456;2024-01-11T15:02:52;36.22;;;19.48;;
85077;SDS011;75413;50.144;8.456;2024-01-11T15:05:36;36.75;;;20.45;;
85077;SDS011;75413;50.144;8.456;2024-01-11T15:08:20;31.60;;;18.83;;
85077;SDS011;75413;50.144;8.456;2024-01-11T15:11:04;37.92;;;18.60;;
85077;SDS011;75413;50.144;8.456;2024-01-11T15:13:48;33.33;;;20.23;;
85077;SDS011;75413;50.144;8.456;2024-01-11T15:16:32;37.38;;;19.73;;
85077;SDS011;75413;50.144;8.456;2024-01-11T15:19:16;34.15;;;17.77;;
85077;SDS011;75413;50.144;8.456;2024-01-11T15:22:00;32.58;;;18.92;;
85077;SDS011;75413;50.144;8.456;2024-01-11T15:24:44;32.95;;;19.55;;
85077;SDS011;75413;50.144;8.456;2024-01-11T15:27:28;42.88;;;18.80;;
85077;SDS011;75413;50.144;8.456;2024-01-11T15:30:12;44.45;;;17.63;;
85077;SDS011;75413;50.144;8.456;2024-01-11T15:32:57;40.45;;;18.92;;
85077;SDS011;75413;50.144;8.456;2024-01-11T15:35:41;37.60;;;17.90;;
85077;SDS011;75413;50.144;8.456;2024-01-11T15:38:24;35.30;;;18.70;;
85077;SDS011;75413;50.144;8.456;2024-01-11T15:41:08;33.65;;;18.80;;
85077;SDS011;75413;50.144;8.456;2024-01-11T15:43:53;32.83;;;18.25;;
85077;SDS011;75413;50.144;8.456;2024-01-11T15:46:36;32.55;;;18.77;;
85077;SDS011;75413;50.144;8.456;2024-01-11T15:49:21;34.38;;;18.75;;
85077;SDS011;75413;50.144;8.456;2024-01-11T15:54:50;33.70;;;19.35;;
85077;SDS011;75413;50.144;8.456;2024-01-11T15:57:34;35.58;;;18.95;;
85077;SDS011;75413;50.144;8.456;2024-01-11T16:00:19;35.30;;;20.10;;
85077;SDS011;75413;50.144;8.456;2024-01-11T16:05:50;31.95;;;17.73;;
85077;SDS011;75413;50.144;8.456;2024-01-11T16:08:34;31.45;;;18.23;;
85077;SDS011;75413;50.144;8.456;2024-01-11T16:11:18;39.65;;;20.02;;
85077;SDS011;75413;50.144;8.456;2024-01-11T16:14:02;40.03;;;20.48;;
85077;SDS011;75413;50.144;8.456;2024-01-11T16:16:47;31.45;;;17.90;;
85077;SDS011;75413;50.144;8.456;2024-01-11T16:19:31;35.35;;;19.83;;
85077;SDS011;75413;50.144;8.456;2024-01-11T16:22:17;32.60;;;18.23;;
85077;SDS011;75413;50.144;8.456;2024-01-11T16:25:04;36.75;;;19.92;;
85077;SDS011;75413;50.144;8.456;2024-01-11T16:27:48;37.88;;;20.73;;
85077;SDS011;75413;50.144;8.456;2024-01-11T16:30:32;31.63;;;17.90;;
85077;SDS011;75413;50.144;8.456;2024-01-11T16:33:16;37.38;;;20.77;;
85077;SDS011;75413;50.144;8.456;2024-01-11T16:36:00;39.10;;;21.27;;
85077;SDS011;75413;50.144;8.456;2024-01-11T16:38:47;33.85;;;19.75;;
85077;SDS011;75413;50.144;8.456;2024-01-11T16:41:31;34.70;;;19.73;;
85077;SDS011;75413;50.144;8.456;2024-01-11T16:44:14;36.38;;;18.35;;